Time;durP1;ratioP1;P1;durP2;ratioP2;P2;SDS_P1;SDS_P2;PMS_P1;PMS_P2;Temp;Humidity;BMP_temperature;BMP_pressure;BME280_temperature;BME280_humidity;BME280_pressure;Samples;Min_cycle;Max_cycle;Signal;HPM_P1;HPM_P2
2022/10/01 00:01:07;;;;;;;12.95;9.82;;;11.50;99.90;;;;;;5091976;28;20071;-44
2022/10/01 00:03:34;;;;;;;13.23;9.70;;;11.30;99.90;;;;;;5093404;28;20040;-44
2022/10/01 00:06:09;;;;;;;13.20;9.45;;;11.40;99.90;;;;;;5093497;28;20039;-46
2022/10/01 00:08:36;;;;;;;11.13;9.00;;;11.40;99.90;;;;;;5093533;28;20101;-46
2022/10/01 00:11:13;;;;;;;11.88;9.77;;;11.40;99.90;;;;;;5093497;28;20481;-44
2022/10/01 00:13:41;;;;;;;13.23;10.35;;;11.20;99.90;;;;;;5093343;28;20071;-44
2022/10/01 00:16:10;;;;;;;12.82;9.75;;;11.30;99.90;;;;;;5091513;28;20047;-44
2022/10/01 00:18:40;;;;;;;13.73;10.20;;;11.20;99.90;;;;;;5092966;28;20031;-45
2022/10/01 00:21:20;;;;;;;14.30;10.80;;;11.30;99.90;;;;;;5092932;28;20158;-46
2022/10/01 00:23:46;;;;;;;15.73;11.13;;;11.40;99.90;;;;;;5074236;28;20103;-45
2022/10/01 00:26:19;;;;;;;13.43;11.05;;;11.30;99.90;;;;;;5093277;28;20055;-44
2022/10/01 00:28:48;;;;;;;12.95;10.63;;;11.40;99.90;;;;;;5092822;28;20119;-44
2022/10/01 00:31:14;;;;;;;13.52;11.40;;;11.30;99.90;;;;;;5092828;28;20044;-45
2022/10/01 00:33:41;;;;;;;18.15;11.98;;;11.30;99.90;;;;;;5092642;28;20032;-47
2022/10/01 00:36:08;;;;;;;14.88;10.90;;;11.10;99.90;;;;;;5092819;28;20040;-47
2022/10/01 00:38:35;;;;;;;14.20;11.00;;;11.10;99.90;;;;;;5092983;28;20119;-44
2022/10/01 00:41:02;;;;;;;17.48;12.82;;;11.30;99.90;;;;;;5092837;28;20495;-46
2022/10/01 00:43:31;;;;;;;16.45;12.90;;;11.00;99.90;;;;;;5091402;28;20039;-45
2022/10/01 00:46:03;;;;;;;15.55;11.25;;;11.20;99.90;;;;;;5092702;28;20031;-47
2022/10/01 00:48:34;;;;;;;14.25;11.80;;;11.00;99.90;;;;;;5092521;28;20539;-48
2022/10/01 00:51:00;;;;;;;15.48;12.68;;;11.10;99.90;;;;;;5092237;28;20065;-46
2022/10/01 00:53:26;;;;;;;14.85;12.40;;;11.00;99.90;;;;;;5091060;28;20047;-45
2022/10/01 00:55:55;;;;;;;17.20;13.00;;;11.20;99.90;;;;;;5092510;28;20119;-44
2022/10/01 00:58:23;;;;;;;16.95;12.93;;;11.10;99.90;;;;;;5092563;28;20075;-44
2022/10/01 01:00:50;;;;;;;17.95;12.40;;;11.00;99.90;;;;;;5089675;28;20119;-44
2022/10/01 01:03:16;;;;;;;17.40;13.10;;;11.10;99.90;;;;;;5091294;28;20044;-43
2022/10/01 01:05:42;;;;;;;14.75;12.35;;;10.90;99.90;;;;;;5092149;28;20383;-45
2022/10/01 01:08:09;;;;;;;17.05;13.18;;;10.80;99.90;;;;;;5092182;28;20035;-44
2022/10/01 01:10:56;;;;;;;15.75;12.82;;;10.90;99.90;;;;;;5091176;28;20528;-46
2022/10/01 01:13:32;;;;;;;16.10;12.70;;;10.90;99.90;;;;;;5091889;28;20049;-44
2022/10/01 01:16:05;;;;;;;15.63;12.23;;;10.90;99.90;;;;;;5092312;28;20040;-44
2022/10/01 01:18:47;;;;;;;16.05;12.45;;;10.90;99.90;;;;;;5090795;28;20046;-44
2022/10/01 01:21:39;;;;;;;19.15;13.68;;;11.10;99.90;;;;;;5092140;28;20425;-45
2022/10/01 01:24:19;;;;;;;17.23;13.80;;;10.90;99.90;;;;;;5090835;28;20054;-44
2022/10/01 01:27:07;;;;;;;16.40;12.15;;;10.90;99.90;;;;;;5090505;28;20040;-46
2022/10/01 01:29:42;;;;;;;17.77;13.82;;;10.90;99.90;;;;;;5092063;28;20040;-43
2022/10/01 01:32:13;;;;;;;15.93;12.57;;;11.00;99.90;;;;;;5089229;28;20135;-47
2022/10/01 01:34:42;;;;;;;15.82;13.02;;;10.90;99.90;;;;;;5092020;28;20180;-45
2022/10/01 01:37:12;;;;;;;15.50;12.75;;;10.90;99.90;;;;;;5091413;28;20044;-44
2022/10/01 01:39:42;;;;;;;17.45;13.75;;;11.00;99.90;;;;;;5091841;28;20057;-45
2022/10/01 01:42:30;;;;;;;15.27;12.93;;;11.00;99.90;;;;;;5091494;28;20118;-45
2022/10/01 01:44:59;;;;;;;17.50;13.30;;;11.00;99.90;;;;;;5089220;28;20075;-45
2022/10/01 01:47:29;;;;;;;15.85;12.27;;;10.80;99.90;;;;;;5090251;28;20510;-45
2022/10/01 01:49:57;;;;;;;16.30;12.40;;;11.00;99.90;;;;;;5090931;28;20032;-44
2022/10/01 01:52:23;;;;;;;14.32;12.45;;;10.90;99.90;;;;;;5091044;28;20063;-46
2022/10/01 01:54:50;;;;;;;17.27;12.55;;;11.10;99.90;;;;;;5091253;28;20044;-44
2022/10/01 01:57:17;;;;;;;15.75;11.70;;;10.80;99.90;;;;;;5091627;28;20074;-43
2022/10/01 01:59:44;;;;;;;14.82;11.45;;;11.10;99.90;;;;;;5091383;28;20479;-46
2022/10/01 02:02:18;;;;;;;17.75;12.60;;;10.90;99.90;;;;;;5091381;28;20044;-45
2022/10/01 02:04:47;;;;;;;16.90;12.65;;;10.80;99.90;;;;;;5091281;28;20096;-44
2022/10/01 02:07:19;;;;;;;15.57;12.50;;;10.80;99.90;;;;;;5091124;28;20118;-45
2022/10/01 02:09:45;;;;;;;14.00;11.48;;;10.80;99.90;;;;;;5091308;28;20032;-46
2022/10/01 02:12:25;;;;;;;15.68;11.63;;;11.00;99.90;;;;;;5090983;28;20036;-50
2022/10/01 02:14:56;;;;;;;12.82;10.45;;;11.00;99.90;;;;;;5089773;28;20035;-45
2022/10/01 02:17:33;;;;;;;14.90;11.50;;;11.00;99.90;;;;;;5091252;28;20096;-47
2022/10/01 02:20:10;;;;;;;15.05;11.13;;;10.90;99.90;;;;;;5090854;28;20036;-44
2022/10/01 02:22:58;;;;;;;14.45;11.18;;;10.80;99.90;;;;;;5090706;28;20036;-43
2022/10/01 02:25:30;;;;;;;11.90;9.52;;;11.10;99.90;;;;;;5090541;28;20517;-46
2022/10/01 02:28:04;;;;;;;11.57;9.32;;;11.10;99.90;;;;;;5090793;28;20039;-43
2022/10/01 02:30:34;;;;;;;10.98;8.73;;;11.00;99.90;;;;;;5088561;28;20382;-46
2022/10/01 02:33:02;;;;;;;10.35;8.52;;;11.10;99.90;;;;;;5089664;28;20040;-45
2022/10/01 02:35:30;;;;;;;11.05;8.27;;;10.90;99.90;;;;;;5089545;28;20552;-45
2022/10/01 02:37:58;;;;;;;10.30;8.55;;;10.90;99.90;;;;;;5090725;28;20406;-46
2022/10/01 02:40:27;;;;;;;9.48;8.48;;;11.10;99.90;;;;;;5090951;28;20044;-43
2022/10/01 02:43:00;;;;;;;11.15;8.50;;;11.10;99.90;;;;;;5090991;28;20445;-43
2022/10/01 02:45:28;;;;;;;12.18;7.53;;;11.10;99.90;;;;;;5090908;28;20126;-43
2022/10/01 02:48:07;;;;;;;9.75;7.50;;;11.20;99.90;;;;;;5090846;28;20098;-43
2022/10/01 02:50:52;;;;;;;10.63;7.47;;;10.90;99.90;;;;;;5090550;28;20078;-45
2022/10/01 02:53:43;;;;;;;10.25;7.53;;;10.90;99.90;;;;;;5090149;28;20055;-46
2022/10/01 02:56:10;;;;;;;9.20;7.20;;;11.20;99.90;;;;;;5083137;28;20067;-44
2022/10/01 02:58:36;;;;;;;8.40;6.90;;;10.90;99.90;;;;;;5089601;28;20083;-44
2022/10/01 03:01:02;;;;;;;8.25;6.60;;;11.10;99.90;;;;;;5088870;28;20444;-45
2022/10/01 03:03:29;;;;;;;8.98;6.53;;;11.10;99.90;;;;;;5090662;28;20434;-45
2022/10/01 03:05:55;;;;;;;7.80;6.15;;;11.10;99.90;;;;;;5089396;28;20525;-45
2022/10/01 03:08:21;;;;;;;8.98;6.03;;;11.00;99.90;;;;;;5090670;28;20111;-43
2022/10/01 03:10:46;;;;;;;8.30;6.22;;;10.90;99.90;;;;;;5090525;28;20040;-44
2022/10/01 03:13:12;;;;;;;9.80;6.90;;;11.10;99.90;;;;;;5090514;28;20356;-45
2022/10/01 03:15:38;;;;;;;9.23;7.15;;;11.20;99.90;;;;;;5088497;28;20387;-43
2022/10/01 03:18:03;;;;;;;10.60;6.85;;;10.90;99.90;;;;;;5090519;28;20090;-44
2022/10/01 03:20:29;;;;;;;8.95;7.30;;;11.20;99.90;;;;;;5088678;28;20029;-45
2022/10/01 03:22:55;;;;;;;8.57;6.75;;;11.20;99.90;;;;;;5090574;28;20540;-43
2022/10/01 03:25:20;;;;;;;11.70;7.80;;;11.00;99.90;;;;;;5088710;28;20078;-46
2022/10/01 03:27:46;;;;;;;9.02;7.28;;;11.20;99.90;;;;;;5093244;28;20036;-44
2022/10/01 03:30:12;;;;;;;10.07;7.40;;;11.10;99.90;;;;;;5094105;28;20124;-44
2022/10/01 03:32:38;;;;;;;10.32;7.57;;;11.20;99.90;;;;;;5094246;28;20032;-46
2022/10/01 03:35:04;;;;;;;8.38;6.28;;;11.20;99.90;;;;;;5094045;28;20054;-43
2022/10/01 03:37:30;;;;;;;9.85;6.95;;;11.10;99.90;;;;;;5093755;28;20036;-47
2022/10/01 03:39:55;;;;;;;9.13;6.65;;;11.10;99.90;;;;;;5092610;28;20043;-46
2022/10/01 03:42:21;;;;;;;8.75;6.32;;;10.80;99.90;;;;;;5093921;28;20032;-44
2022/10/01 03:44:47;;;;;;;8.55;6.95;;;11.20;99.90;;;;;;5093916;28;20734;-44
2022/10/01 03:47:13;;;;;;;7.78;5.80;;;10.90;99.90;;;;;;5093666;28;20036;-45
2022/10/01 03:49:38;;;;;;;6.85;5.53;;;11.20;99.90;;;;;;5093829;28;20101;-43
2022/10/01 03:52:05;;;;;;;6.80;4.78;;;11.10;99.90;;;;;;5093430;28;20035;-46
2022/10/01 03:54:31;;;;;;;7.03;4.88;;;10.90;99.90;;;;;;5093460;28;20043;-44
2022/10/01 03:56:57;;;;;;;7.00;4.72;;;11.20;99.90;;;;;;5093436;28;20063;-45
2022/10/01 03:59:26;;;;;;;7.13;4.70;;;11.10;99.90;;;;;;5092406;28;20127;-43
2022/10/01 04:01:52;;;;;;;7.93;4.90;;;11.00;99.90;;;;;;5092947;28;20036;-46
2022/10/01 04:04:18;;;;;;;5.57;4.10;;;10.90;99.90;;;;;;5091722;28;20085;-43
2022/10/01 04:06:44;;;;;;;5.45;3.80;;;11.30;99.90;;;;;;5093474;28;20032;-43
2022/10/01 04:09:09;;;;;;;5.30;3.70;;;11.20;99.90;;;;;;5093580;28;20479;-43
2022/10/01 04:11:35;;;;;;;4.60;3.33;;;11.30;99.90;;;;;;5093492;28;20032;-45
2022/10/01 04:14:01;;;;;;;4.57;3.50;;;11.30;99.90;;;;;;5093546;28;20067;-44
2022/10/01 04:16:27;;;;;;;6.05;4.00;;;11.30;99.90;;;;;;5093054;28;20110;-45
2022/10/01 04:18:53;;;;;;;4.93;3.28;;;11.00;99.90;;;;;;5093187;28;20047;-42
2022/10/01 04:21:19;;;;;;;7.10;3.63;;;11.40;99.90;;;;;;5093000;28;20036;-44
2022/10/01 04:23:45;;;;;;;3.92;2.60;;;11.30;99.90;;;;;;5092850;28;20074;-46
2022/10/01 04:26:11;;;;;;;4.90;2.80;;;11.10;99.90;;;;;;5093308;28;20071;-44
2022/10/01 04:28:36;;;;;;;5.10;2.80;;;11.30;99.90;;;;;;5093159;28;20488;-44
2022/10/01 04:33:47;;;;;;;4.15;2.50;;;11.30;99.90;;;;;;5093159;28;20442;-43
2022/10/01 04:36:13;;;;;;;3.90;2.78;;;11.30;99.90;;;;;;5093108;28;20040;-45
2022/10/01 04:38:39;;;;;;;4.88;3.60;;;11.20;99.90;;;;;;5091380;28;20048;-47
2022/10/01 04:41:04;;;;;;;5.25;4.00;;;11.30;99.90;;;;;;5092906;28;20150;-45
2022/10/01 04:43:30;;;;;;;5.60;5.00;;;11.40;99.90;;;;;;5093010;28;20043;-45
2022/10/01 04:45:56;;;;;;;6.80;5.10;;;11.40;99.90;;;;;;5089557;28;20048;-44
2022/10/01 04:48:21;;;;;;;5.88;5.15;;;11.60;99.90;;;;;;5092769;28;20387;-44
2022/10/01 04:50:47;;;;;;;6.80;5.93;;;11.40;99.90;;;;;;5092480;28;20035;-42
2022/10/01 04:53:13;;;;;;;8.85;5.68;;;11.40;99.90;;;;;;5091268;28;20047;-48
2022/10/01 04:55:38;;;;;;;6.95;6.15;;;11.40;99.90;;;;;;5092564;28;20036;-43
2022/10/01 04:58:04;;;;;;;7.55;6.68;;;11.50;99.90;;;;;;5091231;28;20079;-44
2022/10/01 05:00:30;;;;;;;7.88;6.57;;;11.40;99.90;;;;;;5092037;28;20036;-42
2022/10/01 05:02:56;;;;;;;7.80;6.97;;;11.70;99.90;;;;;;5092105;28;20044;-43
2022/10/01 05:05:23;;;;;;;10.38;7.72;;;11.40;99.90;;;;;;5092686;28;20036;-43
2022/10/01 05:07:49;;;;;;;10.35;9.00;;;11.60;99.90;;;;;;5090327;28;20044;-44
2022/10/01 05:10:18;;;;;;;9.52;8.45;;;11.80;99.90;;;;;;5090968;28;20075;-44
2022/10/01 05:12:45;;;;;;;10.93;8.90;;;11.60;99.90;;;;;;5092179;28;20035;-43
2022/10/01 05:15:11;;;;;;;9.55;8.55;;;11.70;99.90;;;;;;5092246;28;20078;-43
2022/10/01 05:17:37;;;;;;;9.30;8.40;;;11.90;99.90;;;;;;5092058;28;20502;-46
2022/10/01 05:20:05;;;;;;;10.65;9.07;;;11.70;99.90;;;;;;5092062;28;20032;-45
2022/10/01 05:22:31;;;;;;;10.77;9.55;;;11.60;99.90;;;;;;5091752;28;20398;-44
2022/10/01 05:24:58;;;;;;;11.20;9.40;;;11.80;99.90;;;;;;5091581;28;20048;-44
2022/10/01 05:27:25;;;;;;;11.70;10.38;;;11.80;99.90;;;;;;5092034;28;20081;-44
2022/10/01 05:29:52;;;;;;;10.45;9.35;;;11.70;99.90;;;;;;5090352;28;20047;-43
2022/10/01 05:32:18;;;;;;;10.38;9.38;;;11.80;99.90;;;;;;5090594;28;20032;-42
2022/10/01 05:34:43;;;;;;;11.95;10.75;;;11.90;99.90;;;;;;5090176;28;20048;-43
2022/10/01 05:37:10;;;;;;;12.60;10.55;;;11.70;99.90;;;;;;5091516;28;20036;-45
2022/10/01 05:39:37;;;;;;;11.75;10.48;;;11.80;99.90;;;;;;5091497;28;20165;-44
2022/10/01 05:42:03;;;;;;;12.70;11.45;;;11.60;99.90;;;;;;5088011;28;20047;-43
2022/10/01 05:44:32;;;;;;;15.10;12.13;;;11.80;99.90;;;;;;5091566;28;20044;-43
2022/10/01 05:46:57;;;;;;;14.40;12.88;;;11.50;99.90;;;;;;5091593;28;20471;-44
2022/10/01 05:49:24;;;;;;;13.48;12.07;;;11.50;99.90;;;;;;5090981;28;20047;-42
2022/10/01 05:51:49;;;;;;;15.82;14.15;;;11.60;99.90;;;;;;5090978;28;20040;-42
2022/10/01 05:54:18;;;;;;;15.60;14.10;;;11.60;99.90;;;;;;5091062;28;20038;-44
2022/10/01 05:56:44;;;;;;;15.00;13.50;;;11.60;99.90;;;;;;5091622;28;20133;-44
2022/10/01 05:59:10;;;;;;;15.38;13.88;;;11.80;99.90;;;;;;5091469;28;20488;-44
2022/10/01 06:01:36;;;;;;;16.20;14.60;;;11.60;99.90;;;;;;5091162;28;20032;-45
2022/10/01 06:04:02;;;;;;;17.20;15.50;;;11.50;99.90;;;;;;5091070;28;20062;-44
2022/10/01 06:06:28;;;;;;;16.63;14.93;;;11.60;99.90;;;;;;5090044;28;20139;-42
2022/10/01 06:08:54;;;;;;;16.80;15.15;;;11.90;99.90;;;;;;5091148;28;20032;-44
2022/10/01 06:11:23;;;;;;;18.98;15.30;;;11.90;99.90;;;;;;5091358;28;20043;-42
2022/10/01 06:13:49;;;;;;;18.30;16.42;;;11.90;99.90;;;;;;5091024;28;20059;-43
2022/10/01 06:16:15;;;;;;;16.17;14.68;;;11.60;99.90;;;;;;5086829;28;20065;-44
2022/10/01 06:18:41;;;;;;;16.33;14.77;;;11.90;99.90;;;;;;5091148;28;20043;-43
2022/10/01 06:21:08;;;;;;;16.65;14.95;;;11.80;99.90;;;;;;5090967;28;20369;-43
2022/10/01 06:23:35;;;;;;;19.88;16.25;;;11.90;99.90;;;;;;5090648;28;20062;-43
2022/10/01 06:26:04;;;;;;;19.70;16.42;;;11.70;99.90;;;;;;5091136;28;20040;-45
2022/10/01 06:28:30;;;;;;;18.55;16.63;;;11.70;99.90;;;;;;5090811;28;20086;-42
2022/10/01 06:30:56;;;;;;;19.27;17.38;;;11.60;99.90;;;;;;5090888;28;20072;-42
2022/10/01 06:33:21;;;;;;;20.02;18.02;;;11.90;99.90;;;;;;5090952;28;20446;-42
2022/10/01 06:35:49;;;;;;;19.27;17.48;;;11.70;99.90;;;;;;5089336;28;20395;-45
2022/10/01 06:38:18;;;;;;;18.17;16.42;;;12.10;99.90;;;;;;5089464;28;20085;-46
2022/10/01 06:40:49;;;;;;;18.67;16.85;;;12.20;99.90;;;;;;5090845;28;20494;-44
2022/10/01 06:43:15;;;;;;;18.35;16.42;;;12.00;99.90;;;;;;5091014;28;20024;-47
2022/10/01 06:45:41;;;;;;;20.08;17.42;;;12.10;99.90;;;;;;5090955;28;20491;-44
2022/10/01 06:48:13;;;;;;;20.58;18.58;;;12.10;99.90;;;;;;5090236;28;20043;-43
2022/10/01 06:50:40;;;;;;;19.88;17.90;;;12.20;99.90;;;;;;5090311;28;20043;-43
2022/10/01 06:53:06;;;;;;;20.27;18.25;;;12.20;99.90;;;;;;5090919;28;20053;-44
2022/10/01 06:55:33;;;;;;;23.00;20.70;;;12.10;99.90;;;;;;5090583;28;20075;-45
2022/10/01 06:58:08;;;;;;;23.30;21.00;;;12.20;99.90;;;;;;5088590;28;20097;-44
2022/10/01 07:00:37;;;;;;;21.73;19.63;;;12.60;99.90;;;;;;5088618;28;20044;-44
2022/10/01 07:03:10;;;;;;;19.80;17.80;;;12.10;99.90;;;;;;5094437;28;20111;-43
2022/10/01 07:05:37;;;;;;;20.80;18.65;;;12.20;99.90;;;;;;5090315;28;20037;-45
2022/10/01 07:08:03;;;;;;;19.83;17.80;;;12.20;99.90;;;;;;5088610;28;20044;-42
2022/10/01 07:10:29;;;;;;;19.42;17.45;;;12.20;99.90;;;;;;5085844;28;20080;-42
2022/10/01 07:12:54;;;;;;;32.03;18.88;;;12.40;99.90;;;;;;5093503;28;20063;-42
2022/10/01 07:15:21;;;;;;;23.65;18.60;;;12.60;99.90;;;;;;5092688;28;20048;-42
2022/10/01 07:17:49;;;;;;;20.98;18.80;;;12.40;99.90;;;;;;5093842;28;20035;-46
2022/10/01 07:20:16;;;;;;;21.45;16.92;;;12.80;99.90;;;;;;5083998;28;20047;-43
2022/10/01 07:22:43;;;;;;;17.48;14.73;;;12.60;99.90;;;;;;5080362;28;20044;-43
2022/10/01 07:25:09;;;;;;;18.55;15.20;;;12.60;99.90;;;;;;5081756;28;20082;-43
2022/10/01 07:27:35;;;;;;;16.92;14.60;;;11.80;99.90;;;;;;5081303;28;20101;-46
2022/10/01 07:30:00;;;;;;;21.25;15.40;;;13.10;99.90;;;;;;5083332;28;20048;-41
2022/10/01 07:32:26;;;;;;;17.50;12.35;;;12.70;99.90;;;;;;5085246;28;20036;-41
2022/10/01 07:34:52;;;;;;;19.70;13.02;;;12.90;99.90;;;;;;5084470;28;20092;-42
2022/10/01 07:37:17;;;;;;;17.05;12.18;;;13.00;99.90;;;;;;5083893;28;20125;-44
2022/10/01 07:39:43;;;;;;;13.55;10.70;;;13.10;99.90;;;;;;5085107;28;20479;-43
2022/10/01 07:42:09;;;;;;;14.35;10.85;;;13.40;99.90;;;;;;5085067;28;20043;-44
2022/10/01 07:44:35;;;;;;;15.95;11.80;;;13.50;99.90;;;;;;5084174;28;20044;-44
2022/10/01 07:47:00;;;;;;;15.23;9.95;;;13.20;99.90;;;;;;5081521;28;20035;-42
2022/10/01 07:49:26;;;;;;;17.23;10.10;;;13.60;99.90;;;;;;5084961;28;20123;-43
2022/10/01 07:51:53;;;;;;;16.63;8.35;;;13.40;99.90;;;;;;5084077;28;20028;-44
2022/10/01 07:54:22;;;;;;;15.40;8.43;;;13.60;99.90;;;;;;5083058;28;20143;-43
2022/10/01 07:56:51;;;;;;;11.30;7.35;;;13.60;99.90;;;;;;5083200;28;20040;-44
2022/10/01 07:59:17;;;;;;;15.65;6.35;;;14.00;99.90;;;;;;5083908;28;20130;-44
2022/10/01 08:01:46;;;;;;;10.02;5.20;;;13.60;99.90;;;;;;5084726;28;20479;-46
2022/10/01 08:06:56;;;;;;;12.57;5.63;;;13.60;99.90;;;;;;5083557;28;20043;-44
2022/10/01 08:09:23;;;;;;;12.63;5.10;;;14.00;99.90;;;;;;5084487;28;20032;-45
2022/10/01 08:11:49;;;;;;;11.82;5.80;;;13.70;99.90;;;;;;5083072;28;20136;-45
2022/10/01 08:14:17;;;;;;;14.15;5.80;;;14.00;99.90;;;;;;5081077;28;20117;-47
2022/10/01 08:16:43;;;;;;;12.63;4.22;;;14.10;99.90;;;;;;5081999;28;20035;-44
2022/10/01 08:19:10;;;;;;;10.75;4.72;;;13.90;99.90;;;;;;5080659;28;20063;-45
2022/10/01 08:21:36;;;;;;;14.48;5.22;;;13.80;99.90;;;;;;5080613;28;20032;-46
2022/10/01 08:24:03;;;;;;;9.90;4.82;;;14.10;99.90;;;;;;5080395;28;20044;-45
2022/10/01 08:26:29;;;;;;;11.85;4.63;;;13.90;99.90;;;;;;5080173;28;20407;-47
2022/10/01 08:28:55;;;;;;;11.48;4.80;;;14.30;99.90;;;;;;5079569;28;20032;-44
2022/10/01 08:31:21;;;;;;;12.00;4.75;;;14.40;99.90;;;;;;5080076;28;20459;-44
2022/10/01 08:33:47;;;;;;;12.75;4.65;;;14.60;99.90;;;;;;5079174;28;20095;-44
2022/10/01 08:36:12;;;;;;;13.45;3.70;;;14.40;99.90;;;;;;5067917;28;20040;-49
2022/10/01 08:38:39;;;;;;;13.85;4.15;;;14.90;99.90;;;;;;5069468;28;20067;-46
2022/10/01 08:41:20;;;;;;;9.88;3.78;;;14.70;99.90;;;;;;5077925;28;20043;-50
2022/10/01 08:43:48;;;;;;;8.65;3.00;;;15.10;99.90;;;;;;5080439;28;20123;-45
2022/10/01 08:46:21;;;;;;;8.93;2.55;;;15.10;99.90;;;;;;5079959;28;20066;-47
2022/10/01 08:49:11;;;;;;;10.30;2.50;;;15.10;99.90;;;;;;5082951;28;20032;-44
2022/10/01 08:51:41;;;;;;;9.10;1.63;;;15.20;99.90;;;;;;5080304;28;20105;-45
2022/10/01 08:54:28;;;;;;;8.10;2.05;;;14.90;99.90;;;;;;5090030;28;20054;-44
2022/10/01 08:56:56;;;;;;;9.18;1.70;;;15.00;99.90;;;;;;5087614;28;20383;-48
2022/10/01 09:00:05;;;;;;;7.78;1.45;;;14.90;99.90;;;;;;5071839;28;20106;-46
2022/10/01 09:02:34;;;;;;;9.00;1.38;;;14.80;99.90;;;;;;5046538;28;20059;-47
2022/10/01 09:05:06;;;;;;;7.10;1.52;;;14.60;99.90;;;;;;5091079;28;20494;-45
2022/10/01 09:07:38;;;;;;;9.20;1.60;;;14.90;99.90;;;;;;5092321;28;20043;-45
2022/10/01 09:10:40;;;;;;;8.40;1.75;;;15.00;99.90;;;;;;5074190;28;20467;-47
2022/10/01 09:13:40;;;;;;;7.03;1.38;;;15.20;99.90;;;;;;5091011;28;20036;-46
2022/10/01 09:16:26;;;;;;;4.88;1.10;;;15.00;99.90;;;;;;5092044;28;20035;-45
2022/10/01 09:19:01;;;;;;;7.20;1.10;;;14.90;99.90;;;;;;5092219;28;20040;-44
2022/10/01 09:21:38;;;;;;;6.07;1.35;;;14.70;99.90;;;;;;5091745;28;20091;-44
2022/10/01 09:24:14;;;;;;;9.15;1.65;;;14.80;99.90;;;;;;5090866;28;20048;-45
2022/10/01 09:26:47;;;;;;;9.63;2.17;;;14.90;99.90;;;;;;5092035;28;20461;-46
2022/10/01 09:29:18;;;;;;;9.20;1.90;;;15.40;99.90;;;;;;5092030;28;20059;-46
2022/10/01 09:31:47;;;;;;;7.22;1.80;;;15.50;99.90;;;;;;5092130;28;20486;-47
2022/10/01 09:34:36;;;;;;;7.03;1.50;;;15.50;99.90;;;;;;5091786;28;20088;-45
2022/10/01 09:37:50;;;;;;;7.32;2.20;;;15.30;99.90;;;;;;5092011;28;20032;-43
2022/10/01 09:40:37;;;;;;;9.33;2.63;;;15.30;99.90;;;;;;5043727;28;20406;-46
2022/10/01 09:43:07;;;;;;;11.45;2.72;;;15.20;99.90;;;;;;5091508;28;20270;-45
2022/10/01 09:45:33;;;;;;;10.98;2.33;;;15.60;99.90;;;;;;5091746;28;20505;-46
2022/10/01 09:48:12;;;;;;;8.82;2.60;;;15.80;99.90;;;;;;5091254;28;20097;-45
2022/10/01 09:50:42;;;;;;;14.02;3.00;;;15.90;99.90;;;;;;5091307;28;20043;-44
2022/10/01 09:53:15;;;;;;;10.88;2.95;;;15.80;99.90;;;;;;5091789;28;20482;-47
2022/10/01 09:55:44;;;;;;;9.77;3.10;;;16.10;99.90;;;;;;5091542;28;20386;-44
2022/10/01 09:58:17;;;;;;;12.77;2.63;;;16.00;99.90;;;;;;5091475;28;20089;-48
2022/10/01 10:00:44;;;;;;;10.68;2.30;;;16.20;99.90;;;;;;5091639;28;20475;-45
2022/10/01 10:03:21;;;;;;;9.32;2.45;;;16.40;99.90;;;;;;5091419;28;20104;-45
2022/10/01 10:05:48;;;;;;;11.35;2.40;;;16.50;99.90;;;;;;5091517;28;20403;-45
2022/10/01 10:08:26;;;;;;;13.70;2.40;;;16.30;99.90;;;;;;5091174;28;20127;-45
2022/10/01 10:11:08;;;;;;;9.13;2.03;;;16.30;99.90;;;;;;5091439;28;20386;-46
2022/10/01 10:13:39;;;;;;;12.07;2.65;;;16.30;99.90;;;;;;5091326;28;20040;-44
2022/10/01 10:16:09;;;;;;;12.20;2.67;;;16.00;99.90;;;;;;5091048;28;20610;-45
2022/10/01 10:18:37;;;;;;;11.82;2.67;;;16.10;99.90;;;;;;5090942;28;20495;-46
2022/10/01 10:21:09;;;;;;;11.77;2.22;;;16.50;99.90;;;;;;5090959;28;20393;-47
2022/10/01 10:23:49;;;;;;;13.10;2.65;;;16.60;99.90;;;;;;5090868;28;20122;-50
2022/10/01 10:26:19;;;;;;;12.45;2.58;;;16.60;99.90;;;;;;5090899;28;20044;-46
2022/10/01 10:28:46;;;;;;;11.63;2.22;;;16.80;99.90;;;;;;5091009;28;20032;-47
2022/10/01 10:31:17;;;;;;;8.43;2.30;;;16.70;99.90;;;;;;5089930;28;20044;-47
2022/10/01 10:34:03;;;;;;;10.02;2.03;;;16.90;99.90;;;;;;5091095;28;20044;-49
2022/10/01 10:36:32;;;;;;;10.30;2.10;;;16.40;99.90;;;;;;5090498;28;20075;-46
2022/10/01 10:38:59;;;;;;;8.77;2.13;;;15.90;99.90;;;;;;5090691;28;20080;-45
2022/10/01 10:41:27;;;;;;;6.78;1.60;;;15.40;99.90;;;;;;5089822;28;20101;-48
2022/10/01 10:44:03;;;;;;;11.00;2.00;;;15.40;99.90;;;;;;5090689;28;20115;-47
2022/10/01 10:46:37;;;;;;;6.63;1.60;;;15.30;99.90;;;;;;5090709;28;20044;-47
2022/10/01 10:49:28;;;;;;;13.30;1.92;;;15.20;99.90;;;;;;5089426;28;20637;-45
2022/10/01 10:51:55;;;;;;;9.27;2.20;;;15.20;99.90;;;;;;5089762;28;20464;-47
2022/10/01 10:54:28;;;;;;;12.38;2.85;;;15.30;99.90;;;;;;5090917;28;20424;-46
2022/10/01 10:57:20;;;;;;;18.92;2.90;;;15.20;99.90;;;;;;5090897;28;20386;-51
2022/10/01 10:59:58;;;;;;;15.05;2.47;;;15.10;99.90;;;;;;5090804;28;20431;-47
2022/10/01 11:02:29;;;;;;;5.80;1.02;;;14.00;99.90;;;;;;5090864;28;20044;-47
2022/10/01 11:04:57;;;;;;;3.75;1.08;;;13.30;99.90;;;;;;5090430;28;20032;-50
2022/10/01 11:07:25;;;;;;;6.70;1.70;;;12.80;99.90;;;;;;5090414;28;20059;-50
2022/10/01 11:10:12;;;;;;;4.85;1.48;;;12.50;99.90;;;;;;5090817;28;20028;-47
2022/10/01 11:12:56;;;;;;;7.55;1.55;;;12.50;99.90;;;;;;5090638;28;20479;-51
2022/10/01 11:15:38;;;;;;;5.88;1.75;;;12.60;99.90;;;;;;5090282;28;20042;-47
2022/10/01 11:18:34;;;;;;;8.13;1.55;;;13.00;99.90;;;;;;5089433;28;20035;-47
2022/10/01 11:21:27;;;;;;;7.47;1.40;;;12.50;99.90;;;;;;5090259;28;20040;-49
2022/10/01 11:24:05;;;;;;;6.25;1.50;;;12.80;99.90;;;;;;5090230;28;20048;-46
2022/10/01 11:26:36;;;;;;;3.60;0.80;;;12.90;99.90;;;;;;5090673;28;20128;-49
2022/10/01 11:29:32;;;;;;;4.90;0.90;;;12.60;99.90;;;;;;5090353;28;20028;-49
2022/10/01 11:32:07;;;;;;;4.03;0.95;;;12.40;99.90;;;;;;5090647;28;20028;-45
2022/10/01 11:35:05;;;;;;;6.93;1.40;;;13.20;99.90;;;;;;5090386;28;20070;-48
2022/10/01 11:37:33;;;;;;;5.55;1.65;;;13.80;99.90;;;;;;5090586;28;20052;-48
2022/10/01 11:40:10;;;;;;;5.55;1.60;;;13.80;99.90;;;;;;5090303;28;20043;-50
2022/10/01 11:42:36;;;;;;;10.75;2.25;;;14.10;99.90;;;;;;5090273;28;20714;-48
2022/10/01 11:45:15;;;;;;;7.13;1.98;;;15.30;99.90;;;;;;5090326;28;20024;-47
2022/10/01 11:47:49;;;;;;;9.00;1.60;;;15.40;99.90;;;;;;5091087;28;20063;-44
2022/10/01 11:50:42;;;;;;;9.45;1.65;;;15.70;99.90;;;;;;5092630;28;20039;-46
2022/10/01 11:53:17;;;;;;;9.85;2.28;;;15.00;99.90;;;;;;5086828;28;20037;-46
2022/10/01 11:59:04;;;;;;;;;;;15.50;99.90;;;;;;5094107;28;20050;-47
2022/10/01 12:01:42;;;;;;;9.35;1.95;;;15.00;99.90;;;;;;5093698;28;19916;-46
2022/10/01 12:04:22;;;;;;;8.23;2.00;;;15.10;99.90;;;;;;5093621;28;20355;-48
2022/10/01 12:07:19;;;;;;;14.82;2.35;;;14.60;99.90;;;;;;5093413;28;20043;-48
2022/10/01 12:09:53;;;;;;;13.25;2.15;;;14.60;99.90;;;;;;5093333;28;20036;-49
2022/10/01 12:12:35;;;;;;;10.38;1.92;;;14.80;99.90;;;;;;5093431;28;20476;-46
2022/10/01 12:15:28;;;;;;;12.75;2.63;;;14.20;99.90;;;;;;5093520;28;20119;-45
2022/10/01 12:18:19;;;;;;;17.30;3.35;;;14.10;99.90;;;;;;5093375;28;20417;-46
2022/10/01 12:20:52;;;;;;;11.13;2.40;;;14.20;99.90;;;;;;5093389;28;20120;-46
2022/10/01 12:23:31;;;;;;;15.30;2.45;;;14.30;99.90;;;;;;5093107;28;20043;-46
2022/10/01 12:26:35;;;;;;;14.57;3.45;;;14.70;99.90;;;;;;5093372;28;20067;-45
2022/10/01 12:29:09;;;;;;;16.20;2.85;;;14.80;99.90;;;;;;5093000;28;20042;-49
2022/10/01 12:31:43;;;;;;;14.82;2.70;;;15.80;99.90;;;;;;5092793;28;20032;-46
2022/10/01 12:34:12;;;;;;;;;;;16.00;99.90;;;;;;5093413;28;20039;-46
2022/10/01 12:37:19;;;;;;;15.80;2.63;;;16.10;99.90;;;;;;5093152;28;20014;-45
2022/10/01 12:40:16;;;;;;;13.65;2.38;;;16.00;99.90;;;;;;5030337;28;20048;-46
2022/10/01 12:43:16;;;;;;;15.70;2.58;;;16.10;99.90;;;;;;5091067;28;20104;-47
2022/10/01 12:46:15;;;;;;;12.02;2.10;;;16.10;99.90;;;;;;5092567;28;20044;-46
2022/10/01 12:48:46;;;;;;;11.48;2.28;;;16.30;99.90;;;;;;5091321;28;20083;-45
2022/10/01 12:51:27;;;;;;;10.98;2.72;;;16.60;99.90;;;;;;5092269;28;20036;-44
2022/10/01 12:54:08;;;;;;;11.82;2.22;;;17.40;99.90;;;;;;5092820;28;20028;-47
2022/10/01 12:57:03;;;;;;;11.38;1.80;;;16.20;99.90;;;;;;5091390;28;20036;-49
2022/10/01 13:00:00;;;;;;;14.27;2.15;;;16.10;99.90;;;;;;5065875;28;20083;-47
2022/10/01 13:02:47;;;;;;;10.18;1.95;;;15.80;99.90;;;;;;5083885;28;20540;-45
2022/10/01 13:05:24;;;;;;;12.90;2.53;;;15.50;99.90;;;;;;5092543;28;20386;-46
2022/10/01 13:07:59;;;;;;;13.18;2.50;;;15.60;99.90;;;;;;5092500;28;20063;-46
2022/10/01 13:10:56;;;;;;;13.10;2.58;;;16.00;99.90;;;;;;5092364;28;20068;-45